M I D A S
Marine Information and Data Acquisition System
Tripno 1739 of the Zeeleeuw from 2009-07-27 06:58:48 to 2009-07-27 13:02:44
Back to CruiseResearch ActivitiesStationsMapUnderway DataData graphs

EquipmentUnitsComment
TimeDGPSUTC
LatitudeDGPSDM.mWGS84
LongitudeDGPSDM.mWGS84
HeadingGyrodeg 
SOGDGPSknotsSpeed over ground
COGDGPSdegCourse over ground
DepthEcho soundermeters200 kHz
Missing or incorrect values are displayed as -999
Navigation data collected by the RV Zeeleeuw from 2009-07-27 06:45:13 to 2009-07-27 13:10:34
                                                                                    Next 1000 lines
Time Latitude Longitude Heading SOG COG Depth
2009-07-27 06:45:22 51°13.664 2°55.958 126.4 0.6 16 6.8
2009-07-27 06:45:27 51°13.665 2°55.958 126.5 0.1 10 6.8
2009-07-27 06:45:32 51°13.665 2°55.952 126.5 -999 336 6.8
2009-07-27 06:45:37 51°13.662 2°55.959 126.5 -999 264 6.8
2009-07-27 06:45:42 51°13.662 2°55.959 126.5 -999 312 6.9
2009-07-27 06:45:47 51°13.663 2°55.96 126.5 -999 84 6.8
2009-07-27 06:45:52 51°13.663 2°55.96 126.6 -999 315 7.1
2009-07-27 06:45:57 51°13.662 2°55.96 126.6 -999 87 6.9
2009-07-27 06:46:01 51°13.662 2°55.959 126.6 -999 132 6.9
2009-07-27 06:46:06 51°13.662 2°55.959 126.7 -999 181 6.9
2009-07-27 06:46:11 51°13.663 2°55.958 126.7 -999 120 6.8
2009-07-27 06:46:17 51°13.663 2°55.958 126.7 -999 56 5.2
2009-07-27 06:46:22 51°13.663 2°55.959 126.7 -999 305 -999
2009-07-27 06:46:28 51°13.663 2°55.959 126.7 -999 217 -999
2009-07-27 06:46:33 51°13.663 2°55.959 126.6 -999 -999 -999
2009-07-27 06:46:38 51°13.664 2°55.959 126.6 -999 17 6.8
2009-07-27 06:46:42 51°13.664 2°55.959 126.6 -999 63 6.8
2009-07-27 06:46:47 51°13.664 2°55.959 126.6 -999 61 -999
2009-07-27 06:46:52 51°13.665 2°55.959 126.6 -999 208 6.8
2009-07-27 06:46:58 51°13.665 2°55.959 126.6 -999 359 6.8
2009-07-27 06:47:02 51°13.665 2°55.959 126.6 -999 299 6.8
2009-07-27 06:47:07 51°13.665 2°55.959 126.6 -999 20 6.8
2009-07-27 06:47:12 51°13.665 2°55.959 126.6 -999 179 6.8
2009-07-27 06:47:17 51°13.664 2°55.959 126.6 -999 117 6.8
2009-07-27 06:47:22 51°13.664 2°55.96 126.6 -999 114 6.8
2009-07-27 06:47:27 51°13.664 2°55.96 126.6 -999 259 6.8
2009-07-27 06:47:31 51°13.664 2°55.96 126.6 -999 5 6.8
2009-07-27 06:47:36 51°13.664 2°55.96 126.6 -999 10 6.8
2009-07-27 06:47:41 51°13.664 2°55.96 126.6 -999 9 6.8
2009-07-27 06:47:46 51°13.664 2°55.96 126.7 -999 84 6.8
2009-07-27 06:47:51 51°13.664 2°55.96 126.7 -999 97 6.9
2009-07-27 06:47:56 51°13.664 2°55.96 126.7 -999 169 6.8
2009-07-27 06:48:01 51°13.664 2°55.96 126.7 -999 130 6.8
2009-07-27 06:48:06 51°13.664 2°55.96 126.8 -999 96 6.8
2009-07-27 06:48:10 51°13.664 2°55.96 126.9 -999 5 -999
2009-07-27 06:48:16 51°13.664 2°55.96 127 -999 322 -999
2009-07-27 06:48:22 51°13.664 2°55.96 127.1 -999 249 6.8
2009-07-27 06:48:26 51°13.664 2°55.96 127.1 -999 75 6.8
2009-07-27 06:48:31 51°13.664 2°55.96 127.2 -999 57 6.8
2009-07-27 06:48:36 51°13.664 2°55.96 127.2 -999 178 6.8
2009-07-27 06:48:41 51°13.664 2°55.96 127.2 -999 28 6.8
2009-07-27 06:48:46 51°13.664 2°55.96 127.2 -999 356 6.8
2009-07-27 06:48:50 51°13.664 2°55.96 127.2 -999 20 6.8
2009-07-27 06:48:55 51°13.664 2°55.96 127.2 -999 329 6.7
2009-07-27 06:49:00 51°13.664 2°55.96 127.2 -999 186 6.8
2009-07-27 06:49:05 51°13.664 2°55.96 127.2 -999 22 6.8
2009-07-27 06:49:10 51°13.664 2°55.96 127.2 -999 3 6.9
2009-07-27 06:49:15 51°13.664 2°55.96 127.1 -999 347 6.8
2009-07-27 06:49:19 51°13.664 2°55.96 127.1 -999 12 6.8
2009-07-27 06:49:25 51°13.664 2°55.96 127.1 -999 167 6.8
2009-07-27 06:49:30 51°13.664 2°55.96 127.1 -999 77 6.8
2009-07-27 06:49:35 51°13.664 2°55.96 127.1 -999 228 6.7
2009-07-27 06:49:39 51°13.664 2°55.96 127.1 -999 346 6.8
2009-07-27 06:49:45 51°13.664 2°55.96 127.1 -999 359 6.8
2009-07-27 06:49:50 51°13.664 2°55.96 127 -999 247 6.8
2009-07-27 06:49:54 51°13.664 2°55.96 126.8 -999 282 6.7
2009-07-27 06:49:59 51°13.664 2°55.96 126.7 -999 106 6.7
2009-07-27 06:50:05 51°13.664 2°55.96 126.7 -999 160 6.8
2009-07-27 06:50:10 51°13.664 2°55.96 126.7 -999 169 6.8
2009-07-27 06:50:14 51°13.664 2°55.96 127.1 -999 149 6.8
2009-07-27 06:50:19 51°13.664 2°55.96 127.4 -999 143 6.8
2009-07-27 06:50:25 51°13.664 2°55.96 127.8 -999 332 6.8
2009-07-27 06:50:30 51°13.664 2°55.96 128.2 -999 320 6.7
2009-07-27 06:50:35 51°13.664 2°55.96 128.4 -999 -999 6.8
2009-07-27 06:50:40 51°13.664 2°55.96 128.4 -999 13 6.7
2009-07-27 06:50:45 51°13.664 2°55.96 128.4 -999 10 6.8
2009-07-27 06:50:50 51°13.664 2°55.96 128.3 -999 4 6.8
2009-07-27 06:50:54 51°13.664 2°55.96 128.2 -999 273 6.7
2009-07-27 06:50:59 51°13.664 2°55.96 128.2 -999 284 6.7
2009-07-27 06:51:04 51°13.664 2°55.96 128.2 -999 331 6.7
2009-07-27 06:51:09 51°13.664 2°55.96 128.2 -999 237 6.7
2009-07-27 06:51:15 51°13.664 2°55.96 128.2 -999 134 6.7
2009-07-27 06:51:19 51°13.664 2°55.96 128.2 -999 26 6.7
2009-07-27 06:51:25 51°13.664 2°55.96 128.2 -999 359 6.7
2009-07-27 06:51:29 51°13.664 2°55.96 128.2 -999 289 6.8
2009-07-27 06:51:35 51°13.663 2°55.96 128.2 -999 65 6.7
2009-07-27 06:51:39 51°13.663 2°55.96 128.2 -999 116 6.7
2009-07-27 06:51:45 51°13.662 2°55.96 128.2 -999 171 6.7
2009-07-27 06:51:49 51°13.662 2°55.96 128.2 -999 171 6.7
2009-07-27 06:51:55 51°13.662 2°55.961 128.2 -999 270 6.7
2009-07-27 06:51:59 51°13.662 2°55.961 128.2 -999 298 6.7
2009-07-27 06:52:05 51°13.662 2°55.961 128.2 -999 33 6.7
2009-07-27 06:52:09 51°13.662 2°55.961 128.2 -999 165 6.7
2009-07-27 06:52:15 51°13.662 2°55.962 128.2 -999 59 6.7
2009-07-27 06:52:20 51°13.663 2°55.962 128.2 0.1 52 6.7
2009-07-27 06:52:25 51°13.663 2°55.962 128.2 -999 2 6.7
2009-07-27 06:52:29 51°13.663 2°55.962 128.2 -999 351 7
2009-07-27 06:52:35 51°13.663 2°55.962 128.2 -999 340 7
2009-07-27 06:52:39 51°13.662 2°55.962 128.2 -999 183 7
2009-07-27 06:52:45 51°13.662 2°55.962 128.2 -999 190 -999
2009-07-27 06:52:50 51°13.662 2°55.962 128.2 -999 165 -999
2009-07-27 06:52:56 51°13.662 2°55.962 128.2 -999 38 -999
2009-07-27 06:53:01 51°13.662 2°55.962 128.3 -999 130 -999
2009-07-27 06:53:07 51°13.662 2°55.962 128.3 -999 315 -999
2009-07-27 06:53:12 51°13.662 2°55.962 128.3 -999 180 -999
2009-07-27 06:53:18 51°13.662 2°55.962 128.3 -999 77 -999
2009-07-27 06:53:23 51°13.662 2°55.962 128.3 -999 97 -999
2009-07-27 06:53:28 51°13.662 2°55.962 128.3 -999 297 -999
2009-07-27 06:53:34 51°13.663 2°55.962 128.3 -999 142 -999
2009-07-27 06:53:38 51°13.663 2°55.963 128.3 -999 76 -999
2009-07-27 06:53:43 51°13.663 2°55.963 128.3 -999 184 -999
2009-07-27 06:53:48 51°13.663 2°55.963 128.3 -999 189 -999
2009-07-27 06:53:53 51°13.663 2°55.962 128.4 -999 157 -999
2009-07-27 06:53:58 51°13.663 2°55.962 128.4 -999 67 6.7
2009-07-27 06:54:03 51°13.663 2°55.962 128.4 -999 287 6.7
2009-07-27 06:54:08 51°13.663 2°55.962 128.4 -999 297 6.7
2009-07-27 06:54:12 51°13.663 2°55.962 128.4 -999 349 6.7
2009-07-27 06:54:17 51°13.663 2°55.962 128.4 -999 349 6.7
2009-07-27 06:54:22 51°13.663 2°55.962 128.4 -999 143 6.7
2009-07-27 06:54:27 51°13.663 2°55.962 128.4 -999 207 6.7
2009-07-27 06:54:32 51°13.663 2°55.961 128.4 -999 197 6.7
2009-07-27 06:54:36 51°13.663 2°55.961 128.4 -999 197 -999
2009-07-27 06:54:42 51°13.663 2°55.961 128.5 -999 213 6.7
2009-07-27 06:54:47 51°13.663 2°55.961 128.6 -999 289 -999
2009-07-27 06:54:52 51°13.663 2°55.961 128.7 -999 16 -999
2009-07-27 06:54:58 51°13.663 2°55.961 128.7 -999 308 -999
2009-07-27 06:55:03 51°13.663 2°55.961 128.7 -999 278 -999
2009-07-27 06:55:08 51°13.663 2°55.961 128.7 -999 80 -999
2009-07-27 06:55:13 51°13.663 2°55.96 128.7 -999 299 6.7
2009-07-27 06:55:18 51°13.663 2°55.96 128.7 -999 294 -999
2009-07-27 06:55:23 51°13.663 2°55.96 128.7 -999 48 -999
2009-07-27 06:55:28 51°13.663 2°55.96 128.7 -999 104 -999
2009-07-27 06:55:33 51°13.663 2°55.96 128.7 -999 40 -999
2009-07-27 06:55:38 51°13.663 2°55.96 128.7 -999 41 -999
2009-07-27 06:55:43 51°13.663 2°55.96 128.7 -999 52 -999
2009-07-27 06:55:48 51°13.663 2°55.96 128.7 -999 85 -999
2009-07-27 06:55:53 51°13.663 2°55.96 128.6 0.1 79 6.7
2009-07-27 06:55:58 51°13.663 2°55.96 128.4 0.1 85 6.6
2009-07-27 06:56:03 51°13.663 2°55.96 127.8 -999 149 6.6
2009-07-27 06:56:07 51°13.663 2°55.961 126.9 -999 186 6.7
2009-07-27 06:56:12 51°13.663 2°55.961 126 0.1 151 6.6
2009-07-27 06:56:17 51°13.663 2°55.961 125.2 0.1 185 6.6
2009-07-27 06:56:22 51°13.663 2°55.961 124.6 0.1 177 7
2009-07-27 06:56:27 51°13.663 2°55.961 124 0.1 178 6.9
2009-07-27 06:56:32 51°13.663 2°55.961 123.3 0.1 157 6.6
2009-07-27 06:56:37 51°13.663 2°55.961 122.6 -999 156 6.7
2009-07-27 06:56:42 51°13.663 2°55.961 121.9 0.1 187 6.6
2009-07-27 06:56:47 51°13.662 2°55.961 121.2 0.1 186 6.7
2009-07-27 06:56:51 51°13.662 2°55.961 120.5 0.1 185 -999
2009-07-27 06:56:56 51°13.662 2°55.961 119.7 0.1 197 6.7
2009-07-27 06:57:01 51°13.662 2°55.961 118.9 0.1 195 6.6
2009-07-27 06:57:06 51°13.662 2°55.961 118.1 0.1 198 6.7
2009-07-27 06:57:11 51°13.662 2°55.961 117.3 0.1 199 6.7
2009-07-27 06:57:15 51°13.662 2°55.961 116.4 0.1 190 6.7
2009-07-27 06:57:20 51°13.662 2°55.961 115.5 0.1 200 6.7
2009-07-27 06:57:25 51°13.662 2°55.961 114.7 0.1 204 6.7
2009-07-27 06:57:30 51°13.662 2°55.961 113.8 0.1 233 6.7
2009-07-27 06:57:35 51°13.662 2°55.961 112.9 0.1 241 6.8
2009-07-27 06:57:39 51°13.662 2°55.96 112.2 0.1 259 6.7
2009-07-27 06:57:44 51°13.662 2°55.96 111.6 0.2 290 6.7
2009-07-27 06:57:50 51°13.662 2°55.959 111.1 0.5 288 6.7
2009-07-27 06:57:55 51°13.663 2°55.957 110.9 0.8 289 6.8
2009-07-27 06:58:00 51°13.663 2°55.954 110.7 1.1 292 7
2009-07-27 06:58:04 51°13.664 2°55.952 110.6 1.5 291 6.8
2009-07-27 06:58:09 51°13.665 2°55.948 111.1 1.9 292 6.8
2009-07-27 06:58:15 51°13.666 2°55.942 111.7 2.3 293 -999
2009-07-27 06:58:21 51°13.668 2°55.936 112.1 2.6 294 -999
2009-07-27 06:58:27 51°13.67 2°55.929 112.3 3 294 -999
2009-07-27 06:58:32 51°13.672 2°55.922 112.3 3.2 294 -999
2009-07-27 06:58:38 51°13.674 2°55.914 111.9 3.4 293 -999
2009-07-27 06:58:43 51°13.676 2°55.907 111.1 3.6 293 -999
2009-07-27 06:58:48 51°13.678 2°55.899 110.4 3.7 291 -999
2009-07-27 06:58:53 51°13.68 2°55.891 109.8 3.8 291 -999
2009-07-27 06:58:59 51°13.682 2°55.882 109.2 3.8 289 -999
2009-07-27 06:59:03 51°13.683 2°55.876 108.5 3.7 289 -999
2009-07-27 06:59:08 51°13.684 2°55.868 108 3.7 288 -999
2009-07-27 06:59:13 51°13.686 2°55.86 107.1 3.7 288 -999
2009-07-27 06:59:18 51°13.688 2°55.853 106 3.6 286 -999
2009-07-27 06:59:23 51°13.689 2°55.845 104.6 3.5 286 -999
2009-07-27 06:59:28 51°13.69 2°55.838 103.4 3.4 284 -999
2009-07-27 06:59:33 51°13.691 2°55.83 102.4 3.3 284 -999
2009-07-27 06:59:38 51°13.692 2°55.823 101.3 3.3 282 -999
2009-07-27 06:59:43 51°13.693 2°55.816 100 3.2 282 -999
2009-07-27 06:59:48 51°13.694 2°55.809 99 3.2 279 -999
2009-07-27 06:59:54 51°13.694 2°55.8 97.9 3.4 279 -999
2009-07-27 06:59:58 51°13.695 2°55.794 96.6 3.4 278 -999
2009-07-27 07:00:03 51°13.695 2°55.787 95.1 3.3 277 -999
2009-07-27 07:00:08 51°13.696 2°55.78 93.7 3.1 276 -999
2009-07-27 07:00:14 51°13.696 2°55.773 92.9 3 275 -999
2009-07-27 07:00:18 51°13.696 2°55.767 91.9 2.8 274 -999
2009-07-27 07:00:23 51°13.697 2°55.762 91.2 2.7 274 -999
2009-07-27 07:00:28 51°13.697 2°55.756 90.6 2.5 273 -999
2009-07-27 07:00:34 51°13.697 2°55.75 89.8 2.3 272 13.7
2009-07-27 07:00:38 51°13.697 2°55.746 89 2 272 13.9
2009-07-27 07:00:43 51°13.697 2°55.742 88.2 1.8 272 14
2009-07-27 07:00:48 51°13.697 2°55.74 87.1 1.2 276 13.9
2009-07-27 07:00:52 51°13.697 2°55.738 85.5 0.8 271 13.7
2009-07-27 07:00:57 51°13.697 2°55.737 82.7 0.5 297 13.7
2009-07-27 07:01:02 51°13.698 2°55.737 78.7 0.3 295 13.7
2009-07-27 07:01:07 51°13.698 2°55.736 74.7 0.3 347 13.7
2009-07-27 07:01:12 51°13.699 2°55.737 70.5 0.3 23 13.8
2009-07-27 07:01:16 51°13.699 2°55.737 66.3 0.5 30 13.7
2009-07-27 07:01:22 51°13.7 2°55.738 62 0.6 41 13.8
2009-07-27 07:01:27 51°13.701 2°55.739 57.8 0.8 36 13.8
2009-07-27 07:01:31 51°13.701 2°55.74 53.5 0.9 37 13.8
2009-07-27 07:01:36 51°13.702 2°55.741 49.2 0.8 39 13.5
2009-07-27 07:01:41 51°13.703 2°55.742 45 0.7 27 13.5
2009-07-27 07:01:46 51°13.704 2°55.743 41.8 0.5 32 13.6
2009-07-27 07:01:51 51°13.704 2°55.743 39.6 0.3 16 13.6
2009-07-27 07:01:55 51°13.704 2°55.743 36 0.1 354 13.6
2009-07-27 07:02:00 51°13.704 2°55.742 33.6 0.1 240 13.6
2009-07-27 07:02:05 51°13.703 2°55.742 30.6 0.4 218 13.6
2009-07-27 07:02:10 51°13.703 2°55.741 28.7 0.6 213 13.5
2009-07-27 07:02:15 51°13.701 2°55.74 26.9 0.8 210 13.4
2009-07-27 07:02:19 51°13.7 2°55.739 25.5 0.9 208 13.6
2009-07-27 07:02:24 51°13.699 2°55.738 24.1 1 206 13.7
2009-07-27 07:02:30 51°13.697 2°55.737 23.1 1 206 13.8
2009-07-27 07:02:35 51°13.696 2°55.736 22.3 0.9 206 4.5
2009-07-27 07:02:40 51°13.695 2°55.735 21.9 0.7 211 4.6
2009-07-27 07:02:45 51°13.695 2°55.735 21.1 0.2 225 4.6
2009-07-27 07:02:50 51°13.695 2°55.735 19.3 0.4 345 4.7
2009-07-27 07:02:55 51°13.697 2°55.734 15.5 0.8 358 13.8
2009-07-27 07:03:00 51°13.698 2°55.734 10.5 1.2 357 13.8
2009-07-27 07:03:05 51°13.7 2°55.734 4.6 1.5 355 13.6
2009-07-27 07:03:09 51°13.703 2°55.733 359.4 1.9 350 13.4
2009-07-27 07:03:15 51°13.706 2°55.732 351.4 2.3 345 13.2
2009-07-27 07:03:20 51°13.71 2°55.73 345.1 2.8 340 13
2009-07-27 07:03:25 51°13.714 2°55.727 340.7 3.4 339 13.1
2009-07-27 07:03:29 51°13.719 2°55.724 338.3 4.1 336 12.7
2009-07-27 07:03:35 51°13.726 2°55.719 335.8 4.9 334 12.8
2009-07-27 07:03:40 51°13.732 2°55.713 335 5.3 334 12.5
2009-07-27 07:03:45 51°13.739 2°55.708 334.7 5.7 333 12.9
2009-07-27 07:03:50 51°13.747 2°55.701 334.5 6.1 333 12.8
2009-07-27 07:03:55 51°13.755 2°55.695 334.2 6.4 333 12.9
2009-07-27 07:03:59 51°13.761 2°55.689 334 6.7 332 12.3
2009-07-27 07:04:04 51°13.77 2°55.683 333.9 7 333 12.5
2009-07-27 07:04:10 51°13.78 2°55.674 334.1 7.2 333 12.2
2009-07-27 07:04:15 51°13.789 2°55.667 334.6 7.4 333 12.4
2009-07-27 07:04:19 51°13.797 2°55.661 334.6 7.6 334 12.4
2009-07-27 07:04:24 51°13.806 2°55.653 335.4 7.7 335 12.2
2009-07-27 07:04:30 51°13.818 2°55.644 336 7.8 334 12.2
2009-07-27 07:04:35 51°13.828 2°55.637 336.1 7.9 334 12
2009-07-27 07:04:39 51°13.836 2°55.63 336.1 8 335 11.8
2009-07-27 07:04:44 51°13.846 2°55.623 336.1 8.1 335 11.6
2009-07-27 07:04:50 51°13.859 2°55.614 336.4 8.1 335 12
2009-07-27 07:04:55 51°13.869 2°55.606 336.5 8.2 334 12.1
2009-07-27 07:04:59 51°13.877 2°55.599 336.4 8.3 335 12.1
2009-07-27 07:05:03 51°13.886 2°55.593 336.1 8.3 334 12.1
2009-07-27 07:05:09 51°13.898 2°55.583 336.1 8.4 335 12.1
2009-07-27 07:05:15 51°13.911 2°55.574 336.6 8.4 335 12
2009-07-27 07:05:19 51°13.919 2°55.568 336.7 8.5 335 12.1
2009-07-27 07:05:25 51°13.932 2°55.558 336.5 8.5 335 12
2009-07-27 07:05:29 51°13.941 2°55.551 336.1 8.5 334 12.1
2009-07-27 07:05:35 51°13.954 2°55.542 336.6 8.5 336 12
2009-07-27 07:05:39 51°13.962 2°55.536 337.2 8.5 335 12
2009-07-27 07:05:45 51°13.975 2°55.527 337.2 8.5 336 12
2009-07-27 07:05:49 51°13.984 2°55.52 336.9 8.5 335 11.9
2009-07-27 07:05:55 51°13.996 2°55.511 336.5 8.5 335 11.8
2009-07-27 07:05:59 51°14.005 2°55.505 336.6 8.5 336 11.9
2009-07-27 07:06:04 51°14.016 2°55.497 336.7 8.5 335 11.9
2009-07-27 07:06:09 51°14.027 2°55.489 336.9 8.5 336 11.9
2009-07-27 07:06:15 51°14.04 2°55.479 337.3 8.5 335 12
2009-07-27 07:06:19 51°14.048 2°55.473 336.8 8.5 334 11.9
2009-07-27 07:06:25 51°14.061 2°55.463 336.4 8.6 335 12
2009-07-27 07:06:30 51°14.072 2°55.455 336.7 8.6 335 12
2009-07-27 07:06:35 51°14.083 2°55.447 336.4 8.6 334 12
2009-07-27 07:06:39 51°14.091 2°55.44 336.1 8.6 334 12
2009-07-27 07:06:45 51°14.104 2°55.43 335.8 8.6 334 12
2009-07-27 07:06:50 51°14.115 2°55.422 335.3 8.6 333 12
2009-07-27 07:06:55 51°14.125 2°55.413 334.8 8.6 333 11.9
2009-07-27 07:06:59 51°14.133 2°55.406 334.4 8.6 332 11.9
2009-07-27 07:07:03 51°14.142 2°55.398 333.2 8.6 330 11.9
2009-07-27 07:07:10 51°14.156 2°55.385 332.1 8.6 329 12
2009-07-27 07:07:15 51°14.166 2°55.375 330.2 8.6 327 11.9
2009-07-27 07:07:19 51°14.174 2°55.366 328.8 8.6 326 11.9
2009-07-27 07:07:24 51°14.184 2°55.355 326.6 8.6 324 11.9
2009-07-27 07:07:30 51°14.195 2°55.341 325.2 8.6 323 11.9
2009-07-27 07:07:35 51°14.205 2°55.329 324.4 8.6 322 12
2009-07-27 07:07:39 51°14.212 2°55.32 323.1 8.6 321 12
2009-07-27 07:07:45 51°14.223 2°55.304 321.6 8.7 319 12
2009-07-27 07:07:49 51°14.23 2°55.294 320.1 8.7 317 11.9
2009-07-27 07:07:55 51°14.24 2°55.278 318.2 8.7 316 11.9
2009-07-27 07:07:59 51°14.247 2°55.267 316.8 8.7 315 12
2009-07-27 07:08:05 51°14.257 2°55.25 315.3 8.7 313 12
2009-07-27 07:08:09 51°14.263 2°55.239 313.9 8.7 312 11.7
2009-07-27 07:08:15 51°14.273 2°55.221 313.2 8.8 312 11.9
2009-07-27 07:08:19 51°14.279 2°55.21 312.7 8.8 311 11.8
2009-07-27 07:08:24 51°14.287 2°55.195 311.9 8.8 310 11.9
2009-07-27 07:08:30 51°14.296 2°55.177 311.3 8.8 309 11.6
2009-07-27 07:08:35 51°14.304 2°55.162 310.5 8.8 309 11.3
2009-07-27 07:08:40 51°14.312 2°55.147 310 8.8 309 11.5
2009-07-27 07:08:45 51°14.319 2°55.132 310 8.8 308 12
2009-07-27 07:08:49 51°14.325 2°55.12 310 8.8 309 12
2009-07-27 07:08:55 51°14.334 2°55.101 310 8.8 308 12.1
2009-07-27 07:08:59 51°14.34 2°55.089 310.1 8.9 309 11.8
2009-07-27 07:09:05 51°14.35 2°55.07 310.3 9 308 11.7
2009-07-27 07:09:10 51°14.357 2°55.055 310 9 308 11.3
2009-07-27 07:09:15 51°14.365 2°55.039 310 9 309 11.1
2009-07-27 07:09:20 51°14.373 2°55.024 310.8 9.1 311 11
2009-07-27 07:09:24 51°14.38 2°55.012 313.3 9.2 313 10.8
2009-07-27 07:09:30 51°14.392 2°54.995 316.7 9.2 316 10.9
2009-07-27 07:09:35 51°14.401 2°54.982 320.1 9.2 319 11
2009-07-27 07:09:40 51°14.411 2°54.969 322.2 9.3 319 11.1
2009-07-27 07:09:44 51°14.419 2°54.958 323.6 9.5 321 11.2
2009-07-27 07:09:49 51°14.43 2°54.945 325 9.7 323 11.3
2009-07-27 07:09:55 51°14.443 2°54.93 326.8 9.8 324 11.3
2009-07-27 07:10:00 51°14.454 2°54.917 327.9 10 324 11.2
2009-07-27 07:10:04 51°14.464 2°54.906 328.2 10.2 325 11.2
2009-07-27 07:10:09 51°14.475 2°54.894 328.8 10.4 325 11.3
2009-07-27 07:10:15 51°14.49 2°54.878 329.1 10.6 326 11.1
2009-07-27 07:10:20 51°14.502 2°54.865 329.6 10.7 326 11.1
2009-07-27 07:10:24 51°14.512 2°54.853 329.2 10.8 325 11
2009-07-27 07:10:29 51°14.524 2°54.84 329.4 10.9 327 10.9
2009-07-27 07:10:35 51°14.54 2°54.825 330.3 10.9 327 10.8
2009-07-27 07:10:40 51°14.553 2°54.812 330.7 11 328 10.8
2009-07-27 07:10:45 51°14.566 2°54.798 331.1 11.1 328 10.8
2009-07-27 07:10:49 51°14.576 2°54.788 331.5 11.2 328 10.7
2009-07-27 07:10:55 51°14.592 2°54.772 331.8 11.3 328 10.7
2009-07-27 07:11:00 51°14.606 2°54.76 332.3 11.3 329 10.5
2009-07-27 07:11:05 51°14.619 2°54.746 332.4 11.4 329 10.6
2009-07-27 07:11:10 51°14.633 2°54.733 332.3 11.4 329 10.5
2009-07-27 07:11:15 51°14.646 2°54.72 332.3 11.6 329 10.6
2009-07-27 07:11:20 51°14.66 2°54.707 332.3 11.6 329 10.4
2009-07-27 07:11:25 51°14.674 2°54.693 332.3 11.7 329 10.5
2009-07-27 07:11:29 51°14.685 2°54.683 332.1 11.8 329 10.6
2009-07-27 07:11:35 51°14.702 2°54.666 331.9 11.8 329 10.5
2009-07-27 07:11:40 51°14.716 2°54.653 332.1 11.8 329 10.6
2009-07-27 07:11:44 51°14.728 2°54.642 332.2 11.8 329 10.6
2009-07-27 07:11:50 51°14.745 2°54.626 332.2 11.9 329 10.6
2009-07-27 07:11:55 51°14.759 2°54.612 332.2 11.9 329 10.6
2009-07-27 07:12:00 51°14.773 2°54.599 332.2 11.9 330 10.4
2009-07-27 07:12:04 51°14.784 2°54.589 332.2 11.8 330 10.4
2009-07-27 07:12:09 51°14.799 2°54.576 332.6 11.8 331 10.4
2009-07-27 07:12:15 51°14.815 2°54.56 332.6 11.8 329 10.4
2009-07-27 07:12:20 51°14.829 2°54.548 332.4 11.7 330 10.5
2009-07-27 07:12:24 51°14.841 2°54.537 332.5 11.7 329 10.4
2009-07-27 07:12:29 51°14.854 2°54.524 332.1 11.7 329 10.3
2009-07-27 07:12:35 51°14.871 2°54.508 332.3 11.7 330 10.2
2009-07-27 07:12:40 51°14.885 2°54.495 332.5 11.7 329 10.3
2009-07-27 07:12:44 51°14.897 2°54.485 332.5 11.7 330 10.1
2009-07-27 07:12:49 51°14.911 2°54.472 333.1 11.7 331 10.2
2009-07-27 07:12:55 51°14.928 2°54.457 334 11.8 332 9.9
2009-07-27 07:13:00 51°14.942 2°54.444 334.1 11.8 331 9.8
2009-07-27 07:13:05 51°14.956 2°54.432 333.8 11.8 331 10.5
2009-07-27 07:13:09 51°14.968 2°54.421 333.5 11.8 331 10.9
2009-07-27 07:13:15 51°14.985 2°54.406 333.2 11.8 331 11.1
2009-07-27 07:13:20 51°14.999 2°54.393 333.2 11.8 331 11.1
2009-07-27 07:13:25 51°15.014 2°54.381 333.3 11.9 331 11.1
2009-07-27 07:13:29 51°15.025 2°54.371 333.2 11.8 331 11.1
2009-07-27 07:13:35 51°15.042 2°54.355 332.9 11.9 331 11.2
2009-07-27 07:13:40 51°15.057 2°54.343 332.9 11.9 331 11.2
2009-07-27 07:13:45 51°15.071 2°54.33 332.7 11.9 331 11.2
2009-07-27 07:13:50 51°15.086 2°54.318 332.6 11.9 331 11.3
2009-07-27 07:13:55 51°15.1 2°54.305 332.6 11.9 331 11.3
2009-07-27 07:14:00 51°15.114 2°54.292 332.5 11.9 331 11.3
2009-07-27 07:14:04 51°15.126 2°54.283 333 11.8 332 11.3
2009-07-27 07:14:10 51°15.143 2°54.267 333.2 11.8 331 11.3
2009-07-27 07:14:15 51°15.158 2°54.255 333 11.8 331 11.3
2009-07-27 07:14:20 51°15.172 2°54.242 332.8 11.8 331 11.3
2009-07-27 07:14:24 51°15.183 2°54.232 332.6 11.8 331 11.3
2009-07-27 07:14:29 51°15.198 2°54.219 332.6 11.8 330 11.3
2009-07-27 07:14:35 51°15.215 2°54.204 332.6 11.8 330 11.4
2009-07-27 07:14:40 51°15.229 2°54.191 332.6 11.8 330 11.4
2009-07-27 07:14:44 51°15.24 2°54.18 332.6 11.8 330 11.4
2009-07-27 07:14:49 51°15.254 2°54.167 332.9 11.8 331 11.3
2009-07-27 07:14:55 51°15.272 2°54.152 333.1 11.8 331 11.5
2009-07-27 07:15:00 51°15.286 2°54.14 333.2 11.8 331 11.6
2009-07-27 07:15:04 51°15.297 2°54.13 333.8 11.8 332 11.5
2009-07-27 07:15:09 51°15.312 2°54.117 333.9 11.8 331 11.6
2009-07-27 07:15:15 51°15.329 2°54.102 333.9 11.8 331 11.7
2009-07-27 07:15:20 51°15.343 2°54.089 333.3 11.8 330 11.7
2009-07-27 07:15:25 51°15.358 2°54.077 333.2 11.8 331 11.5
2009-07-27 07:15:29 51°15.369 2°54.067 334 11.8 332 11.5
2009-07-27 07:15:35 51°15.387 2°54.052 334.2 11.9 331 11.6
2009-07-27 07:15:40 51°15.401 2°54.039 334.3 11.9 332 11.5
2009-07-27 07:15:45 51°15.416 2°54.027 334.9 11.8 332 11.5
2009-07-27 07:15:49 51°15.428 2°54.018 335 11.8 332 11.2
2009-07-27 07:15:55 51°15.445 2°54.003 334.8 11.8 332 11.1
2009-07-27 07:16:00 51°15.459 2°53.991 335.1 11.8 333 11.1
2009-07-27 07:16:04 51°15.471 2°53.981 335.5 11.8 332 10.9
2009-07-27 07:16:10 51°15.488 2°53.967 335.4 11.8 333 10.8
2009-07-27 07:16:15 51°15.503 2°53.955 335.4 11.8 332 10.9
2009-07-27 07:16:20 51°15.517 2°53.943 335.4 11.8 332 10.8
2009-07-27 07:16:24 51°15.529 2°53.933 335.2 11.8 332 11.1
2009-07-27 07:16:30 51°15.546 2°53.918 334.4 11.8 331 10.9
2009-07-27 07:16:35 51°15.561 2°53.905 333.9 11.8 331 11.1
2009-07-27 07:16:40 51°15.575 2°53.892 333.3 11.8 330 11.2
2009-07-27 07:16:44 51°15.586 2°53.881 332.9 11.8 330 11.1
2009-07-27 07:16:49 51°15.6 2°53.868 332.7 11.8 331 10.9
2009-07-27 07:16:55 51°15.618 2°53.853 333.4 11.8 331 11.1
2009-07-27 07:17:00 51°15.632 2°53.841 334 11.8 331 11.4
2009-07-27 07:17:04 51°15.643 2°53.831 334.5 11.8 332 11.6
2009-07-27 07:17:09 51°15.658 2°53.818 334.6 11.8 331 11.6
2009-07-27 07:17:15 51°15.675 2°53.803 334.4 11.8 331 11.6
2009-07-27 07:17:20 51°15.689 2°53.79 334.3 11.8 331 11.5
2009-07-27 07:17:24 51°15.701 2°53.781 334.5 11.8 332 11.6
2009-07-27 07:17:29 51°15.715 2°53.768 334.9 11.8 332 11.7
2009-07-27 07:17:35 51°15.733 2°53.753 335.2 11.8 332 11.7
2009-07-27 07:17:40 51°15.747 2°53.741 334.8 11.9 331 11.8
2009-07-27 07:17:45 51°15.762 2°53.728 334.6 11.8 331 11.7
2009-07-27 07:17:49 51°15.773 2°53.718 334.3 11.9 331 11.9
2009-07-27 07:17:55 51°15.79 2°53.703 334.2 11.9 331 11.9
2009-07-27 07:18:00 51°15.805 2°53.69 334.2 11.9 332 11.8
2009-07-27 07:18:05 51°15.819 2°53.678 334.4 11.9 331 12
2009-07-27 07:18:09 51°15.831 2°53.667 334.4 11.9 331 12
2009-07-27 07:18:15 51°15.849 2°53.652 334.1 11.9 331 11.9
2009-07-27 07:18:20 51°15.863 2°53.639 334 11.9 331 11.9
2009-07-27 07:18:24 51°15.875 2°53.629 334.2 11.9 332 11.6
2009-07-27 07:18:30 51°15.892 2°53.614 334.6 11.9 332 11.6
2009-07-27 07:18:35 51°15.907 2°53.602 334.5 11.9 331 12.1
2009-07-27 07:18:40 51°15.921 2°53.589 334.1 11.9 331 11.9
2009-07-27 07:18:45 51°15.936 2°53.576 334 11.9 331 12.1
2009-07-27 07:18:49 51°15.947 2°53.566 334 11.9 331 12.1
2009-07-27 07:18:55 51°15.965 2°53.551 333.8 11.9 331 12.2
2009-07-27 07:19:00 51°15.979 2°53.538 333.9 11.9 331 12.2
2009-07-27 07:19:05 51°15.993 2°53.525 333.9 11.9 331 12
2009-07-27 07:19:09 51°16.005 2°53.515 333.8 11.9 331 12
2009-07-27 07:19:14 51°16.019 2°53.502 333.7 11.9 331 12.1
2009-07-27 07:19:20 51°16.037 2°53.487 333.7 11.9 331 12.2
2009-07-27 07:19:25 51°16.051 2°53.474 333.9 11.9 331 12.2
2009-07-27 07:19:30 51°16.066 2°53.462 334 11.9 332 12.3
2009-07-27 07:19:35 51°16.08 2°53.449 334 11.9 331 12.2
2009-07-27 07:19:40 51°16.095 2°53.436 333.7 12 332 12.2
2009-07-27 07:19:45 51°16.11 2°53.424 334 12 332 12.3
2009-07-27 07:19:49 51°16.121 2°53.414 333.8 12 332 12.3
2009-07-27 07:19:54 51°16.136 2°53.401 333.9 12 332 12.4
2009-07-27 07:19:59 51°16.15 2°53.389 334 12 332 12.4
2009-07-27 07:20:05 51°16.168 2°53.374 333.9 11.9 332 12.3
2009-07-27 07:20:09 51°16.18 2°53.364 334 11.9 332 12.5
2009-07-27 07:20:14 51°16.194 2°53.351 333.4 11.9 331 12.4
2009-07-27 07:20:19 51°16.208 2°53.338 332.8 11.9 331 12.4
2009-07-27 07:20:25 51°16.226 2°53.323 332.4 11.8 330 12.2
2009-07-27 07:20:29 51°16.237 2°53.313 332.2 11.9 330 12.5
2009-07-27 07:20:35 51°16.254 2°53.297 331.8 11.8 329 12.5
2009-07-27 07:20:39 51°16.265 2°53.286 331.2 11.9 329 12.5
2009-07-27 07:20:45 51°16.282 2°53.27 331.2 11.8 330 12.5
2009-07-27 07:20:49 51°16.294 2°53.259 331.5 11.8 330 12.5
2009-07-27 07:20:55 51°16.311 2°53.244 331.7 11.8 330 12.5
2009-07-27 07:20:59 51°16.322 2°53.233 331.5 11.9 329 12.5
2009-07-27 07:21:05 51°16.339 2°53.217 331.2 11.9 330 12.5
2009-07-27 07:21:10 51°16.353 2°53.204 331.2 11.9 329 12.5
2009-07-27 07:21:15 51°16.367 2°53.191 331.2 11.9 330 12.6
2009-07-27 07:21:19 51°16.379 2°53.18 331.6 11.9 330 12.6
2009-07-27 07:21:25 51°16.396 2°53.164 331.8 11.9 330 12.5
2009-07-27 07:21:29 51°16.407 2°53.154 331.8 11.9 330 12.5
2009-07-27 07:21:35 51°16.424 2°53.138 332.2 11.9 331 12.6
2009-07-27 07:21:39 51°16.436 2°53.127 332.2 11.9 330 12.5
2009-07-27 07:21:45 51°16.453 2°53.112 331.8 11.8 330 12.6
2009-07-27 07:21:49 51°16.464 2°53.101 331.8 11.8 330 12.5
2009-07-27 07:21:55 51°16.481 2°53.085 331.9 11.9 330 12.5
2009-07-27 07:22:00 51°16.496 2°53.072 332.2 11.9 330 12.4
2009-07-27 07:22:05 51°16.51 2°53.059 332.2 11.9 330 12.3
2009-07-27 07:22:09 51°16.521 2°53.049 332.1 11.9 330 12.4
2009-07-27 07:22:15 51°16.538 2°53.033 332.2 11.9 330 12.3
2009-07-27 07:22:19 51°16.55 2°53.023 332.5 11.9 331 12.2
2009-07-27 07:22:25 51°16.567 2°53.008 332.5 11.9 331 12.2
2009-07-27 07:22:29 51°16.579 2°52.998 332.5 11.9 331 12.2
2009-07-27 07:22:35 51°16.596 2°52.982 332.1 11.9 330 12.2
2009-07-27 07:22:39 51°16.608 2°52.972 332.6 11.9 332 12.2
2009-07-27 07:22:45 51°16.625 2°52.957 332.5 11.9 331 12
2009-07-27 07:22:49 51°16.637 2°52.947 332.4 11.9 331 12
2009-07-27 07:22:55 51°16.654 2°52.931 332.5 11.9 331 11.8
2009-07-27 07:23:00 51°16.668 2°52.919 332.5 11.9 331 11.8
2009-07-27 07:23:05 51°16.683 2°52.906 332.6 11.9 332 11.6
2009-07-27 07:23:10 51°16.698 2°52.895 333.8 11.9 333 11.5
2009-07-27 07:23:14 51°16.709 2°52.885 334 11.9 332 11.4
2009-07-27 07:23:20 51°16.727 2°52.87 333.4 11.9 331 11.2
2009-07-27 07:23:25 51°16.741 2°52.857 333.2 11.9 331 11.1
2009-07-27 07:23:29 51°16.753 2°52.847 333 11.9 331 10.9
2009-07-27 07:23:34 51°16.767 2°52.834 332.8 11.9 331 10.5
2009-07-27 07:23:40 51°16.784 2°52.819 332.8 11.9 331 10.3
2009-07-27 07:23:45 51°16.799 2°52.806 332.6 11.8 331 10.1
2009-07-27 07:23:49 51°16.81 2°52.796 333 11.8 332 10.3
2009-07-27 07:23:54 51°16.825 2°52.784 333.2 11.8 331 10.3
2009-07-27 07:24:00 51°16.842 2°52.769 333.2 11.8 331 10
2009-07-27 07:24:05 51°16.856 2°52.756 333 11.9 331 9.9
2009-07-27 07:24:10 51°16.871 2°52.744 332.9 11.9 332 10
2009-07-27 07:24:14 51°16.882 2°52.734 333 11.9 331 10
2009-07-27 07:24:20 51°16.9 2°52.721 334.7 11.8 335 10
2009-07-27 07:24:25 51°16.915 2°52.709 335.4 11.9 333 10.2
2009-07-27 07:24:30 51°16.93 2°52.698 336.1 11.9 336 10.2
2009-07-27 07:24:34 51°16.942 2°52.689 337 11.9 335 10.3
2009-07-27 07:24:40 51°16.96 2°52.677 337.6 11.9 337 10.4
2009-07-27 07:24:45 51°16.975 2°52.666 338 11.9 336 10.5
2009-07-27 07:24:49 51°16.987 2°52.658 338.3 11.9 337 10.5
2009-07-27 07:24:54 51°17.003 2°52.647 338.7 11.9 337 10.6
2009-07-27 07:24:59 51°17.018 2°52.637 339 11.9 338 10.5
2009-07-27 07:25:05 51°17.036 2°52.625 339.5 11.9 338 10.3
2009-07-27 07:25:10 51°17.051 2°52.615 339.7 11.9 338 10.3
2009-07-27 07:25:15 51°17.066 2°52.605 339.8 11.9 338 10.1
2009-07-27 07:25:20 51°17.082 2°52.595 339.6 11.8 338 10.2
2009-07-27 07:25:25 51°17.097 2°52.584 339.4 11.9 337 10.2
2009-07-27 07:25:30 51°17.112 2°52.574 339.3 11.9 337 10.3
2009-07-27 07:25:35 51°17.127 2°52.564 339.3 11.9 337 10.2
2009-07-27 07:25:39 51°17.139 2°52.556 339.2 11.9 338 10.3
2009-07-27 07:25:45 51°17.158 2°52.544 339.6 11.9 338 10.4
2009-07-27 07:25:50 51°17.173 2°52.534 340.2 11.9 339 10.3
2009-07-27 07:25:55 51°17.189 2°52.524 340.5 11.9 338 10.3
2009-07-27 07:26:00 51°17.204 2°52.514 340.1 11.9 338 10.5
2009-07-27 07:26:05 51°17.219 2°52.504 339.8 11.9 338 10.6
2009-07-27 07:26:10 51°17.235 2°52.494 340 12 339 10.6
2009-07-27 07:26:14 51°17.247 2°52.487 340.5 12 338 10.7
2009-07-27 07:26:20 51°17.265 2°52.475 340.6 12 338 10.6
2009-07-27 07:26:25 51°17.281 2°52.465 339.9 12 338 10.6
2009-07-27 07:26:30 51°17.296 2°52.455 339.8 11.9 338 10.7
2009-07-27 07:26:34 51°17.308 2°52.447 340.3 11.9 339 10.9
2009-07-27 07:26:40 51°17.327 2°52.435 340.5 12 338 10.8
2009-07-27 07:26:45 51°17.342 2°52.426 340.4 11.9 339 10.7
2009-07-27 07:26:50 51°17.358 2°52.418 340.8 11.8 343 10.8
2009-07-27 07:26:54 51°17.371 2°52.414 345.5 11.7 349 11
2009-07-27 07:26:59 51°17.387 2°52.411 351.9 11.7 353 10.9
2009-07-27 07:27:05 51°17.406 2°52.409 356.6 11.6 355 10.8
2009-07-27 07:27:10 51°17.423 2°52.406 357.6 11.7 357 11.1
2009-07-27 07:27:14 51°17.436 2°52.407 0.3 11.7 1 11
2009-07-27 07:27:19 51°17.452 2°52.407 1.9 11.7 -999 11
2009-07-27 07:27:25 51°17.471 2°52.409 4.1 11.7 5 10.7
2009-07-27 07:27:30 51°17.487 2°52.413 8.5 11.7 8 10.8
2009-07-27 07:27:35 51°17.504 2°52.416 10.2 11.7 7 11
2009-07-27 07:27:39 51°17.516 2°52.421 12.5 11.7 12 10.9
2009-07-27 07:27:45 51°17.535 2°52.427 14.4 11.8 11 11.1
2009-07-27 07:27:50 51°17.551 2°52.434 15.5 11.7 14 10.9
2009-07-27 07:27:55 51°17.567 2°52.441 17 11.8 15 11
2009-07-27 07:28:00 51°17.583 2°52.447 17.9 11.8 15 10.9
2009-07-27 07:28:05 51°17.598 2°52.455 19 11.8 17 11
2009-07-27 07:28:10 51°17.614 2°52.462 19.3 11.8 16 11
2009-07-27 07:28:15 51°17.63 2°52.47 20 11.8 18 11
2009-07-27 07:28:19 51°17.642 2°52.476 20.5 11.8 17 10.6
2009-07-27 07:28:25 51°17.661 2°52.486 20.8 11.8 17 11
2009-07-27 07:28:30 51°17.676 2°52.495 21.1 11.8 19 10.7
2009-07-27 07:28:35 51°17.692 2°52.503 21.2 11.8 19 11
2009-07-27 07:28:40 51°17.706 2°52.515 24.5 11.7 25 10.9
2009-07-27 07:28:45 51°17.72 2°52.528 30.2 11.6 30 10.8
2009-07-27 07:28:50 51°17.735 2°52.54 31.8 11.7 28 11
2009-07-27 07:28:54 51°17.745 2°52.552 34 11.6 34 10.8
2009-07-27 07:28:59 51°17.759 2°52.565 35.7 11.6 32 10.8
2009-07-27 07:29:05 51°17.774 2°52.583 37 11.6 36 10.8
2009-07-27 07:29:10 51°17.787 2°52.599 39.3 11.6 37 10.8
2009-07-27 07:29:15 51°17.798 2°52.617 43.1 11.6 43 10.9
2009-07-27 07:29:19 51°17.808 2°52.63 45.4 11.5 42 10.7
2009-07-27 07:29:25 51°17.821 2°52.653 48.1 11.5 47 11
2009-07-27 07:29:30 51°17.832 2°52.671 49.6 11.6 46 10.7
2009-07-27 07:29:34 51°17.84 2°52.687 51 11.6 49 10.6
2009-07-27 07:29:39 51°17.85 2°52.707 52.9 11.6 50 10.9
2009-07-27 07:29:45 51°17.863 2°52.731 53.6 11.6 51 10.9
2009-07-27 07:29:50 51°17.872 2°52.751 54.7 11.6 52 10.8
2009-07-27 07:29:55 51°17.882 2°52.771 55.3 11.6 52 10.7
2009-07-27 07:29:59 51°17.89 2°52.788 56.4 11.6 55 10.8
2009-07-27 07:30:05 51°17.901 2°52.813 56.8 11.6 53 10.9
2009-07-27 07:30:10 51°17.91 2°52.834 57.2 11.6 55 10.8
2009-07-27 07:30:15 51°17.92 2°52.854 58 11.6 54 10.7
2009-07-27 07:30:19 51°17.927 2°52.871 57.5 11.6 54 10.8
2009-07-27 07:30:25 51°17.938 2°52.897 58.1 11.6 55 10.9
2009-07-27 07:30:30 51°17.948 2°52.918 58.5 11.6 55 10.9
2009-07-27 07:30:34 51°17.955 2°52.934 58.2 11.6 55 11
2009-07-27 07:30:39 51°17.964 2°52.955 58.4 11.6 55 11.1
2009-07-27 07:30:45 51°17.975 2°52.98 58.5 11.6 55 11
2009-07-27 07:30:50 51°17.984 2°53.002 58.7 11.7 56 11.1
2009-07-27 07:30:54 51°17.992 2°53.019 58.8 11.6 55 11
2009-07-27 07:31:00 51°18.003 2°53.044 58.7 11.6 55 11
2009-07-27 07:31:05 51°18.012 2°53.065 58.8 11.6 55 11.1
2009-07-27 07:31:10 51°18.021 2°53.086 58.9 11.6 56 11
2009-07-27 07:31:14 51°18.028 2°53.103 58.5 11.6 54 10.9
2009-07-27 07:31:19 51°18.038 2°53.124 58.1 11.6 55 10.9
2009-07-27 07:31:25 51°18.049 2°53.149 58.5 11.6 54 10.9
2009-07-27 07:31:30 51°18.058 2°53.17 58.4 11.6 56 10.8
2009-07-27 07:31:34 51°18.065 2°53.187 58.9 11.6 55 11
2009-07-27 07:31:39 51°18.074 2°53.208 58.9 11.7 55 11
2009-07-27 07:31:45 51°18.086 2°53.234 58.5 11.6 55 11.1
2009-07-27 07:31:50 51°18.095 2°53.255 58.5 11.6 55 11.1
2009-07-27 07:31:55 51°18.104 2°53.276 58.8 11.6 55 11
2009-07-27 07:31:59 51°18.111 2°53.293 58.9 11.6 55 11
2009-07-27 07:32:05 51°18.122 2°53.318 59 11.6 56 11
2009-07-27 07:32:10 51°18.132 2°53.339 58.7 11.6 54 10.8
2009-07-27 07:32:15 51°18.14 2°53.36 58.4 11.6 56 10.9
2009-07-27 07:32:19 51°18.148 2°53.377 58.8 11.6 55 11
2009-07-27 07:32:25 51°18.158 2°53.403 59.3 11.6 57 10.9
2009-07-27 07:32:30 51°18.168 2°53.424 59.3 11.7 54 10.9
2009-07-27 07:32:35 51°18.177 2°53.445 58.9 11.6 56 11
2009-07-27 07:32:39 51°18.184 2°53.462 59.2 11.6 56 11.3
2009-07-27 07:32:45 51°18.195 2°53.487 59.1 11.6 55 11.1
2009-07-27 07:32:50 51°18.204 2°53.509 58.9 11.6 56 11
2009-07-27 07:32:54 51°18.211 2°53.526 59.1 11.6 56 10.9
2009-07-27 07:32:59 51°18.22 2°53.547 59.1 11.6 56 11
2009-07-27 07:33:05 51°18.231 2°53.573 59.4 11.6 56 10.8
2009-07-27 07:33:10 51°18.24 2°53.594 59.8 11.6 57 11.1
2009-07-27 07:33:15 51°18.249 2°53.615 59.8 11.6 56 11.1
2009-07-27 07:33:19 51°18.256 2°53.632 59.4 11.6 56 11
2009-07-27 07:33:25 51°18.267 2°53.658 59.1 11.6 56 10.9
2009-07-27 07:33:30 51°18.276 2°53.679 59.4 11.6 56 11
2009-07-27 07:33:34 51°18.283 2°53.696 59.5 11.6 56 11
2009-07-27 07:33:39 51°18.292 2°53.717 59.6 11.6 55 11
2009-07-27 07:33:45 51°18.303 2°53.742 58.9 11.6 55 10.9
2009-07-27 07:33:50 51°18.312 2°53.764 59.3 11.6 56 11.1
2009-07-27 07:33:54 51°18.32 2°53.78 59.1 11.6 55 11.2
2009-07-27 07:33:59 51°18.329 2°53.802 59.1 11.6 56 11
2009-07-27 07:34:05 51°18.339 2°53.827 59.5 11.6 56 11.1
2009-07-27 07:34:10 51°18.348 2°53.848 59.4 11.5 56 11
2009-07-27 07:34:15 51°18.357 2°53.87 59.7 11.5 56 11
2009-07-27 07:34:19 51°18.364 2°53.887 59.9 11.6 56 11.1
2009-07-27 07:34:25 51°18.375 2°53.912 59.4 11.6 55 11.2
2009-07-27 07:34:30 51°18.384 2°53.934 59.8 11.6 57 11.1
2009-07-27 07:34:35 51°18.393 2°53.955 60.4 11.6 57 11.1
2009-07-27 07:34:39 51°18.399 2°53.973 61.1 11.6 58 11.1
2009-07-27 07:34:45 51°18.41 2°53.999 61.8 11.6 58 11.2
2009-07-27 07:34:50 51°18.418 2°54.02 61.1 11.6 57 11.1
2009-07-27 07:34:55 51°18.427 2°54.042 61.8 11.6 59 11.2
2009-07-27 07:34:59 51°18.434 2°54.06 62 11.6 57 11.1
2009-07-27 07:35:05 51°18.444 2°54.086 61.5 11.6 58 11.1
2009-07-27 07:35:10 51°18.453 2°54.107 61.1 11.7 57 11.1
2009-07-27 07:35:15 51°18.462 2°54.129 60.6 11.7 57 11.1
2009-07-27 07:35:20 51°18.47 2°54.15 61 11.6 57 11.1
2009-07-27 07:35:25 51°18.479 2°54.172 61.6 11.6 58 11.1
2009-07-27 07:35:30 51°18.487 2°54.194 61.9 11.6 57 11
2009-07-27 07:35:34 51°18.494 2°54.211 61.7 11.6 58 11.1
2009-07-27 07:35:39 51°18.503 2°54.233 61.8 11.6 58 11
2009-07-27 07:35:45 51°18.513 2°54.259 61.4 11.6 57 11.1
2009-07-27 07:35:50 51°18.522 2°54.281 61.1 11.6 57 11
2009-07-27 07:35:55 51°18.531 2°54.303 61.1 11.6 57 11.1
2009-07-27 07:35:59 51°18.538 2°54.32 60.8 11.6 57 11.1
2009-07-27 07:36:05 51°18.548 2°54.346 61.2 11.6 58 11.2
2009-07-27 07:36:10 51°18.557 2°54.367 61.4 11.6 57 11.1
2009-07-27 07:36:14 51°18.564 2°54.385 61.7 11.6 58 11
2009-07-27 07:36:19 51°18.572 2°54.407 61.9 11.6 58 11
2009-07-27 07:36:25 51°18.583 2°54.432 61.4 11.6 57 11.2
2009-07-27 07:36:30 51°18.591 2°54.454 61.2 11.6 58 11.1
2009-07-27 07:36:35 51°18.6 2°54.476 61.4 11.6 57 11
2009-07-27 07:36:39 51°18.606 2°54.493 61.6 11.6 58 11.1
2009-07-27 07:36:45 51°18.617 2°54.519 61.1 11.6 56 11.2
2009-07-27 07:36:50 51°18.626 2°54.54 60.9 11.6 58 11.2
2009-07-27 07:36:55 51°18.635 2°54.562 61.1 11.6 57 11.2
2009-07-27 07:37:00 51°18.643 2°54.584 61 11.6 57 11.2
2009-07-27 07:37:05 51°18.652 2°54.605 60.9 11.5 57 11.2
2009-07-27 07:37:10 51°18.661 2°54.627 61 11.6 58 11.2
2009-07-27 07:37:15 51°18.67 2°54.648 60.9 11.6 56 11.2
2009-07-27 07:37:20 51°18.679 2°54.669 60.2 11.6 56 11.1
2009-07-27 07:37:25 51°18.688 2°54.69 59.9 11.5 56 11.2
2009-07-27 07:37:30 51°18.697 2°54.711 59.5 11.5 56 11.4
2009-07-27 07:37:35 51°18.706 2°54.732 59 11.5 55 11.3
2009-07-27 07:37:40 51°18.715 2°54.753 59.6 11.5 57 11.2
2009-07-27 07:37:45 51°18.723 2°54.774 60 11.5 56 11.1
2009-07-27 07:37:50 51°18.732 2°54.796 60.7 11.5 57 11.5
2009-07-27 07:37:55 51°18.741 2°54.817 60.8 11.5 57 11.2
2009-07-27 07:38:00 51°18.75 2°54.838 60.7 11.5 56 11.3
2009-07-27 07:38:05 51°18.759 2°54.859 60 11.5 56 11.2
2009-07-27 07:38:10 51°18.767 2°54.88 60 11.5 56 11.2
2009-07-27 07:38:14 51°18.775 2°54.897 60 11.5 56 11.2
2009-07-27 07:38:19 51°18.783 2°54.919 60.3 11.5 57 11.2
2009-07-27 07:38:25 51°18.794 2°54.944 60.5 11.5 56 11.2
2009-07-27 07:38:30 51°18.802 2°54.966 61 11.6 58 11.3
2009-07-27 07:38:35 51°18.811 2°54.987 61 11.6 56 11.1
2009-07-27 07:38:39 51°18.818 2°55.004 60.8 11.5 57 11.1
2009-07-27 07:38:45 51°18.829 2°55.03 61.1 11.5 57 11.4
2009-07-27 07:38:50 51°18.837 2°55.051 60.9 11.5 57 11.2
2009-07-27 07:38:55 51°18.846 2°55.073 61.2 11.5 58 11.1
2009-07-27 07:38:59 51°18.853 2°55.09 61.1 11.5 56 11.2
2009-07-27 07:39:05 51°18.863 2°55.116 60.7 11.6 57 11.1
2009-07-27 07:39:10 51°18.872 2°55.137 60.8 11.6 57 11.2
2009-07-27 07:39:15 51°18.881 2°55.158 61.1 11.5 58 11.2
2009-07-27 07:39:19 51°18.888 2°55.175 61 11.5 56 11.1
2009-07-27 07:39:25 51°18.898 2°55.201 60.8 11.5 57 11.2
2009-07-27 07:39:30 51°18.907 2°55.222 60.9 11.5 57 11.2
2009-07-27 07:39:35 51°18.916 2°55.244 60.9 11.5 57 11.2
2009-07-27 07:39:40 51°18.924 2°55.265 61.1 11.6 57 11.1
2009-07-27 07:39:45 51°18.933 2°55.286 61.1 11.5 57 11.3
2009-07-27 07:39:50 51°18.942 2°55.308 61 11.5 57 11.3
2009-07-27 07:39:54 51°18.949 2°55.325 60.7 11.5 56 11.2
2009-07-27 07:40:00 51°18.959 2°55.35 60.7 11.5 57 11.1
2009-07-27 07:40:05 51°18.968 2°55.372 60.9 11.5 57 11
2009-07-27 07:40:10 51°18.977 2°55.393 60.9 11.5 57 11.2
2009-07-27 07:40:15 51°18.986 2°55.414 60.8 11.5 56 11.2
2009-07-27 07:40:20 51°18.994 2°55.436 60.7 11.5 57 11.1
2009-07-27 07:40:25 51°19.003 2°55.457 60.5 11.5 56 11.3
2009-07-27 07:40:30 51°19.012 2°55.478 60.4 11.5 57 11.3
2009-07-27 07:40:34 51°19.019 2°55.495 60.9 11.5 56 11.2
2009-07-27 07:40:39 51°19.028 2°55.517 60.5 11.5 57 11.2
2009-07-27 07:40:45 51°19.039 2°55.541 59.8 11.5 55 11.4
2009-07-27 07:40:50 51°19.048 2°55.562 59.2 11.5 56 11.3
2009-07-27 07:40:55 51°19.057 2°55.583 59.3 11.5 55 11.2
2009-07-27 07:40:59 51°19.064 2°55.6 59.5 11.5 56 11.2
2009-07-27 07:41:05 51°19.075 2°55.625 59.6 11.5 55 11.1
2009-07-27 07:41:10 51°19.084 2°55.646 59.6 11.4 56 11.2
2009-07-27 07:41:15 51°19.092 2°55.667 60.2 11.5 57 11.3
2009-07-27 07:41:19 51°19.1 2°55.684 60.1 11.5 56 11.3
2009-07-27 07:41:25 51°19.11 2°55.71 60 11.5 56 11.4
2009-07-27 07:41:30 51°19.119 2°55.731 60 11.4 56 11.3
2009-07-27 07:41:35 51°19.128 2°55.752 60.4 11.5 57 11.2
2009-07-27 07:41:39 51°19.136 2°55.768 59.5 11.5 54 11.2
2009-07-27 07:41:45 51°19.146 2°55.793 59.2 11.4 56 11.2
2009-07-27 07:41:50 51°19.155 2°55.814 59.5 11.4 55 11.2
2009-07-27 07:41:55 51°19.164 2°55.835 58.9 11.4 55 11.2
2009-07-27 07:42:00 51°19.173 2°55.856 59 11.4 55 11.3
2009-07-27 07:42:05 51°19.183 2°55.876 58.9 11.4 54 11.2
2009-07-27 07:42:10 51°19.192 2°55.897 58.7 11.4 56 11.2
2009-07-27 07:42:14 51°19.199 2°55.914 59.6 11.4 55 11.3
2009-07-27 07:42:19 51°19.208 2°55.934 59.3 11.4 56 11.2
2009-07-27 07:42:25 51°19.218 2°55.96 60.3 11.4 57 11.2
2009-07-27 07:42:30 51°19.227 2°55.981 60.4 11.4 56 11.1
2009-07-27 07:42:35 51°19.236 2°56.002 61.1 11.5 57 11.2
2009-07-27 07:42:39 51°19.243 2°56.019 61.1 11.5 57 11.2
2009-07-27 07:42:45 51°19.253 2°56.045 60.8 11.4 57 11.2
2009-07-27 07:42:50 51°19.261 2°56.066 61 11.4 57 11.2
2009-07-27 07:42:54 51°19.269 2°56.083 60.9 11.5 56 11.1
2009-07-27 07:42:59 51°19.278 2°56.104 60.5 11.5 56 11.2
2009-07-27 07:43:05 51°19.288 2°56.129 60.5 11.4 57 11.4
2009-07-27 07:43:10 51°19.296 2°56.151 60.9 11.4 57 11.3
2009-07-27 07:43:14 51°19.304 2°56.168 60.9 11.5 56 11.2
2009-07-27 07:43:19 51°19.312 2°56.189 60.8 11.5 57 11.3
2009-07-27 07:43:25 51°19.323 2°56.214 61 11.5 56 11.3
2009-07-27 07:43:30 51°19.332 2°56.235 60.7 11.4 57 11.2
2009-07-27 07:43:35 51°19.34 2°56.257 60.9 11.4 57 11.4
2009-07-27 07:43:39 51°19.347 2°56.274 60.9 11.5 56 11.3
2009-07-27 07:43:45 51°19.358 2°56.299 60.6 11.5 57 11.3
2009-07-27 07:43:50 51°19.367 2°56.32 60.5 11.5 56 11.4
2009-07-27 07:43:55 51°19.375 2°56.341 60.5 11.4 56 11.3
2009-07-27 07:43:59 51°19.383 2°56.358 60.3 11.4 56 11.2
2009-07-27 07:44:05 51°19.394 2°56.383 59.5 11.5 54 11.3
2009-07-27 07:44:10 51°19.402 2°56.404 59.1 11.5 56 11.2
2009-07-27 07:44:15 51°19.411 2°56.424 59.6 11.4 55 11.3
2009-07-27 07:44:19 51°19.418 2°56.441 59.7 11.4 56 11.3
2009-07-27 07:44:25 51°19.429 2°56.466 60.1 11.4 56 11.3
2009-07-27 07:44:30 51°19.438 2°56.488 60.5 11.5 57 11.3
2009-07-27 07:44:35 51°19.446 2°56.509 60.9 11.5 57 11.4
2009-07-27 07:44:39 51°19.453 2°56.526 60.8 11.4 56 11.3
2009-07-27 07:44:45 51°19.464 2°56.551 60.8 11.4 57 11.2
2009-07-27 07:44:50 51°19.473 2°56.573 60.9 11.5 56 11.3
2009-07-27 07:44:54 51°19.479 2°56.59 60.8 11.5 57 11.2
2009-07-27 07:45:00 51°19.49 2°56.615 61 11.4 57 11.3
2009-07-27 07:45:05 51°19.498 2°56.636 61.1 11.4 57 11.3
2009-07-27 07:45:10 51°19.507 2°56.657 60.8 11.5 56 11.2
2009-07-27 07:45:15 51°19.516 2°56.678 60.5 11.5 56 11.2
2009-07-27 07:45:19 51°19.523 2°56.695 60.3 11.4 56 11.1
2009-07-27 07:45:25 51°19.533 2°56.721 60.5 11.4 57 11.2
2009-07-27 07:45:30 51°19.542 2°56.742 61.1 11.5 57 11.2
2009-07-27 07:45:35 51°19.551 2°56.763 60.5 11.5 55 11.2
2009-07-27 07:45:39 51°19.558 2°56.78 60.3 11.4 57 11.3
2009-07-27 07:45:45 51°19.568 2°56.805 60.9 11.4 56 11.1
2009-07-27 07:45:50 51°19.577 2°56.826 60.5 11.4 57 11.3
2009-07-27 07:45:55 51°19.586 2°56.847 60.8 11.5 57 11.3
2009-07-27 07:45:59 51°19.593 2°56.864 60.4 11.5 56 11.2
2009-07-27 07:46:05 51°19.603 2°56.89 60.6 11.4 57 11.2
2009-07-27 07:46:10 51°19.612 2°56.911 61 11.4 57 11.3
2009-07-27 07:46:15 51°19.62 2°56.932 61.1 11.5 57 11.2
2009-07-27 07:46:20 51°19.629 2°56.953 60.3 11.5 56 11.2
2009-07-27 07:46:25 51°19.638 2°56.974 60.6 11.4 57 11.2
2009-07-27 07:46:30 51°19.647 2°56.995 60.9 11.5 56 11.3
2009-07-27 07:46:35 51°19.656 2°57.016 60.6 11.4 56 11.3
2009-07-27 07:46:40 51°19.664 2°57.038 60.5 11.5 57 11.2
2009-07-27 07:46:45 51°19.673 2°57.059 61 11.5 57 11.3
2009-07-27 07:46:50 51°19.682 2°57.08 60.7 11.4 56 11.3
2009-07-27 07:46:55 51°19.69 2°57.101 60.6 11.4 57 11.4
2009-07-27 07:47:00 51°19.699 2°57.122 60.8 11.5 56 11.3
2009-07-27 07:47:05 51°19.708 2°57.143 60.8 11.5 56 11.2
2009-07-27 07:47:10 51°19.716 2°57.165 60.6 11.4 57 11.3
2009-07-27 07:47:14 51°19.724 2°57.181 60.3 11.4 55 11.2
2009-07-27 07:47:20 51°19.734 2°57.206 60.3 11.4 57 11.3
2009-07-27 07:47:25 51°19.743 2°57.227 60.6 11.5 56 11.3
2009-07-27 07:47:30 51°19.752 2°57.248 60.2 11.5 55 11.2
2009-07-27 07:47:35 51°19.761 2°57.269 59.7 11.4 56 11.1
2009-07-27 07:47:39 51°19.768 2°57.286 59.9 11.4 56 11.3
2009-07-27 07:47:45 51°19.777 2°57.312 62.1 11.4 61 11
2009-07-27 07:47:50 51°19.785 2°57.334 63.1 11.4 58 11.2
2009-07-27 07:47:55 51°19.793 2°57.356 63.7 11.3 61 11.2
2009-07-27 07:47:59 51°19.799 2°57.374 64.7 11.3 62 11.2
2009-07-27 07:48:05 51°19.808 2°57.4 65.1 11.3 61 11.2
2009-07-27 07:48:10 51°19.815 2°57.422 66 11.3 63 11.1
2009-07-27 07:48:15 51°19.822 2°57.444 66.1 11.3 61 11.3
2009-07-27 07:48:19 51°19.828 2°57.462 66.5 11.3 64 11.2
2009-07-27 07:48:25 51°19.836 2°57.489 67.1 11.4 63 11.3
2009-07-27 07:48:30 51°19.843 2°57.512 67.3 11.4 64 11
2009-07-27 07:48:35 51°19.85 2°57.534 67.5 11.3 63 11.1
2009-07-27 07:48:40 51°19.857 2°57.557 67.3 11.3 64 11
2009-07-27 07:48:45 51°19.864 2°57.579 67.4 11.4 63 11.2
2009-07-27 07:48:50 51°19.871 2°57.602 67.4 11.4 64 11.2
2009-07-27 07:48:54 51°19.877 2°57.62 67.8 11.4 64 11.1
2009-07-27 07:48:59 51°19.884 2°57.643 68.5 11.4 65 11.2
2009-07-27 07:49:05 51°19.892 2°57.67 68.1 11.3 63 11
2009-07-27 07:49:10 51°19.899 2°57.693 68 11.3 65 11.2
2009-07-27 07:49:15 51°19.906 2°57.715 67.7 11.3 63 11.1
2009-07-27 07:49:19 51°19.911 2°57.733 67.6 11.3 65 11.2
2009-07-27 07:49:25 51°19.92 2°57.76 67.9 11.3 63 11.2
2009-07-27 07:49:30 51°19.926 2°57.783 67.6 11.3 64 11.2
2009-07-27 07:49:35 51°19.934 2°57.805 67.6 11.4 64 11.2
2009-07-27 07:49:40 51°19.94 2°57.828 67.9 11.3 65 11.2
2009-07-27 07:49:45 51°19.947 2°57.85 68 11.3 63 11.2
2009-07-27 07:49:50 51°19.954 2°57.873 67.6 11.3 64 11.1
2009-07-27 07:49:55 51°19.961 2°57.895 68.3 11.4 64 11
2009-07-27 07:49:59 51°19.966 2°57.914 68.5 11.4 64 11
2009-07-27 07:50:05 51°19.975 2°57.941 68.3 11.3 64 11.1
2009-07-27 07:50:10 51°19.982 2°57.963 68 11.3 63 11
2009-07-27 07:50:15 51°19.989 2°57.986 67.6 11.3 64 11.2
2009-07-27 07:50:19 51°19.994 2°58.004 67.6 11.3 63 11.1
2009-07-27 07:50:25 51°20.003 2°58.031 67.5 11.3 64 11
2009-07-27 07:50:30 51°20.01 2°58.053 67.2 11.3 63 11.1
2009-07-27 07:50:35 51°20.017 2°58.075 67.2 11.3 64 11
2009-07-27 07:50:40 51°20.024 2°58.098 67.6 11.3 63 11.1
2009-07-27 07:50:45 51°20.031 2°58.12 67.4 11.3 63 10.9
2009-07-27 07:50:50 51°20.038 2°58.143 67.4 11.4 64 11
2009-07-27 07:50:55 51°20.045 2°58.165 67.6 11.3 64 10.9
2009-07-27 07:50:59 51°20.05 2°58.183 67.8 11.3 64 11
2009-07-27 07:51:05 51°20.058 2°58.211 68.3 11.4 64 11
2009-07-27 07:51:10 51°20.065 2°58.233 67.7 11.3 64 11.1
2009-07-27 07:51:15 51°20.072 2°58.256 68.3 11.3 65 11
2009-07-27 07:51:20 51°20.079 2°58.278 68.3 11.3 64 10.9
2009-07-27 07:51:25 51°20.086 2°58.301 67.8 11.3 64 11.1
2009-07-27 07:51:30 51°20.093 2°58.323 68 11.3 64 11
2009-07-27 07:51:35 51°20.1 2°58.345 68.2 11.3 64 11
2009-07-27 07:51:39 51°20.105 2°58.363 68 11.3 64 11.1
2009-07-27 07:51:45 51°20.113 2°58.391 68.4 11.3 64 11
2009-07-27 07:51:50 51°20.12 2°58.413 68.3 11.3 64 11.1
2009-07-27 07:51:55 51°20.127 2°58.436 68 11.3 64 11.1
2009-07-27 07:51:59 51°20.132 2°58.454 68.1 11.3 64 10.9
2009-07-27 07:52:05 51°20.14 2°58.481 68.2 11.3 64 11.1
2009-07-27 07:52:10 51°20.147 2°58.503 68.3 11.3 64 11.1
2009-07-27 07:52:15 51°20.154 2°58.526 68.4 11.3 65 11.1
2009-07-27 07:52:19 51°20.159 2°58.544 68.3 11.4 63 10.9
2009-07-27 07:52:25 51°20.168 2°58.571 67.9 11.3 64 11
2009-07-27 07:52:30 51°20.174 2°58.594 68.2 11.3 64 10.9
2009-07-27 07:52:35 51°20.181 2°58.616 68.2 11.4 63 10.8
2009-07-27 07:52:39 51°20.187 2°58.634 67.7 11.3 64 10.8
2009-07-27 07:52:45 51°20.195 2°58.661 67.7 11.3 63 10.9
2009-07-27 07:52:50 51°20.202 2°58.684 67.6 11.3 64 10.8
2009-07-27 07:52:55 51°20.209 2°58.706 67.9 11.3 65 10.9
2009-07-27 07:52:59 51°20.215 2°58.724 68.2 11.3 64 10.9
2009-07-27 07:53:05 51°20.221 2°58.752 70 11.2 68 11
2009-07-27 07:53:10 51°20.228 2°58.775 70.3 11.3 65 11
2009-07-27 07:53:15 51°20.233 2°58.798 71.2 11.3 69 10.9
2009-07-27 07:53:19 51°20.238 2°58.816 71.9 11.3 67 10.9
2009-07-27 07:53:25 51°20.245 2°58.845 72.6 11.3 70 10.7
2009-07-27 07:53:30 51°20.251 2°58.868 72.5 11.2 68 10.9
2009-07-27 07:53:34 51°20.255 2°58.886 73.4 11.2 71 10.7
2009-07-27 07:53:40 51°20.261 2°58.914 73.9 11.2 70 10.8
2009-07-27 07:53:45 51°20.266 2°58.938 74.8 11.2 72 10.9
2009-07-27 07:53:50 51°20.271 2°58.962 75.4 11.2 72 10.8
2009-07-27 07:53:54 51°20.274 2°58.98 75.5 11.2 72 10.7
2009-07-27 07:54:00 51°20.28 2°59.009 76.2 11.2 73 10.7
2009-07-27 07:54:05 51°20.285 2°59.033 76.3 11.2 73 10.8
2009-07-27 07:54:10 51°20.289 2°59.057 76.5 11.2 73 10.7
2009-07-27 07:54:15 51°20.294 2°59.08 76.7 11.2 73 10.6
2009-07-27 07:54:19 51°20.297 2°59.099 76.9 11.2 73 10.6
2009-07-27 07:54:25 51°20.302 2°59.128 77 11.2 74 10.7
2009-07-27 07:54:30 51°20.307 2°59.152 77 11.2 73 10.6
2009-07-27 07:54:35 51°20.311 2°59.175 76.7 11.2 73 10.6
2009-07-27 07:54:39 51°20.315 2°59.195 77.1 11.2 74 10.5
2009-07-27 07:54:45 51°20.32 2°59.223 77 11.2 73 10.5
2009-07-27 07:54:50 51°20.325 2°59.247 76.9 11.2 74 10.6
2009-07-27 07:54:55 51°20.329 2°59.271 77.4 11.2 74 10.6
2009-07-27 07:55:00 51°20.334 2°59.294 76.9 11.3 72 10.5
2009-07-27 07:55:05 51°20.338 2°59.318 76.7 11.2 75 10.6
2009-07-27 07:55:10 51°20.342 2°59.342 78 11.2 75 10.6
2009-07-27 07:55:15 51°20.346 2°59.366 78.2 11.2 74 10.6
2009-07-27 07:55:20 51°20.35 2°59.39 77.8 11.2 74 10.6
2009-07-27 07:55:25 51°20.354 2°59.414 78 11.1 75 10.4
2009-07-27 07:55:30 51°20.358 2°59.438 78.7 11.2 74 10.5
2009-07-27 07:55:35 51°20.362 2°59.461 78.1 11.2 74 10.5
2009-07-27 07:55:40 51°20.367 2°59.485 78.1 11.2 75 10.6
2009-07-27 07:55:45 51°20.371 2°59.509 78.3 11.2 74 10.4
2009-07-27 07:55:50 51°20.375 2°59.533 78.5 11.2 76 10.5
2009-07-27 07:55:55 51°20.379 2°59.557 78.5 11.2 74 10.4
2009-07-27 07:55:59 51°20.382 2°59.576 78.5 11.2 76 10.5
2009-07-27 07:56:05 51°20.387 2°59.605 78.5 11.2 74 10.5
2009-07-27 07:56:10 51°20.391 2°59.629 78.2 11.2 75 10.5
2009-07-27 07:56:15 51°20.395 2°59.652 77.9 11.3 74 10.5
2009-07-27 07:56:19 51°20.398 2°59.672 78.3 11.2 75 10.5
2009-07-27 07:56:25 51°20.403 2°59.7 78.6 11.2 75 10.5
2009-07-27 07:56:30 51°20.408 2°59.724 78 11.2 74 10.5
2009-07-27 07:56:35 51°20.411 2°59.748 77.9 11.2 75 10.6
2009-07-27 07:56:39 51°20.415 2°59.767 78 11.2 74 10.6
2009-07-27 07:56:45 51°20.42 2°59.796 77.8 11.2 74 10.5
2009-07-27 07:56:50 51°20.424 2°59.82 77.7 11.1 74 10.5
2009-07-27 07:56:55 51°20.428 2°59.843 77.7 11.1 75 10.5
2009-07-27 07:56:59 51°20.432 2°59.862 77.5 11.1 73 10.5
2009-07-27 07:57:05 51°20.437 2°59.891 77.2 11.1 73 10.4
2009-07-27 07:57:10 51°20.442 2°59.914 76.8 11.2 74 10.5
2009-07-27 07:57:15 51°20.446 2°59.938 77 11.2 73 10.6
2009-07-27 07:57:19 51°20.45 2°59.957 76.7 11.2 72 10.6
2009-07-27 07:57:25 51°20.455 2°59.985 77 11.2 75 10.8
2009-07-27 07:57:30 51°20.46 3°0.009 76.5 11.2 71 10.5
2009-07-27 07:57:35 51°20.464 3°0.033 76.3 11.2 74 10.5
2009-07-27 07:57:39 51°20.468 3°0.051 75.9 11.2 71 10.4
2009-07-27 07:57:45 51°20.474 3°0.08 75.6 11.1 73 10.6
2009-07-27 07:57:50 51°20.478 3°0.103 75.6 11.1 73 10.7
2009-07-27 07:57:55 51°20.483 3°0.127 75.8 11.1 73 10.5
2009-07-27 07:58:00 51°20.487 3°0.15 76 11.1 73 10.7
2009-07-27 07:58:05 51°20.492 3°0.174 75.1 11.1 73 10.6
2009-07-27 07:58:10 51°20.496 3°0.197 75.9 11.1 74 10.5
2009-07-27 07:58:14 51°20.5 3°0.216 76 11.1 73 10.7
2009-07-27 07:58:20 51°20.505 3°0.244 75.9 11.1 73 10.5
2009-07-27 07:58:25 51°20.51 3°0.268 75.8 11.1 73 10.5
2009-07-27 07:58:30 51°20.514 3°0.291 76.3 11.1 75 10.6
2009-07-27 07:58:35 51°20.518 3°0.315 77 11.1 73 10.6
2009-07-27 07:58:40 51°20.523 3°0.339 76.2 11.1 73 10.7
2009-07-27 07:58:45 51°20.527 3°0.362 76.3 11.1 73 10.6
2009-07-27 07:58:50 51°20.531 3°0.386 76.6 11.1 74 10.6
2009-07-27 07:58:55 51°20.536 3°0.41 77.1 11.1 74 10.6
2009-07-27 07:58:59 51°20.539 3°0.429 77.2 11.1 74 10.6
2009-07-27 07:59:05 51°20.544 3°0.457 77.3 11.2 75 10.5
2009-07-27 07:59:10 51°20.548 3°0.481 77.7 11.2 75 10.6
2009-07-27 07:59:15 51°20.552 3°0.505 77.6 11.2 75 10.6
2009-07-27 07:59:19 51°20.555 3°0.524 77.8 11.1 76 10.6
2009-07-27 07:59:25 51°20.56 3°0.553 78.1 11.1 75 10.6
2009-07-27 07:59:30 51°20.564 3°0.577 78.3 11.2 75 10.4
2009-07-27 07:59:35 51°20.568 3°0.601 78 11.1 75 10.6
2009-07-27 07:59:39 51°20.571 3°0.62 77.9 11.1 75 10.5
2009-07-27 07:59:45 51°20.576 3°0.649 78.1 11.2 76 10.6
2009-07-27 07:59:50 51°20.58 3°0.672 78 11.1 75 10.5
2009-07-27 07:59:55 51°20.583 3°0.696 78.2 11.2 76 10.5
2009-07-27 07:59:59 51°20.587 3°0.715 78 11.1 75 10.4
2009-07-27 08:00:05 51°20.591 3°0.744 77.9 11.1 76 10.5
2009-07-27 08:00:10 51°20.595 3°0.768 78 11.1 75 10.5
2009-07-27 08:00:15 51°20.599 3°0.792 77.5 11.1 75 10.5
2009-07-27 08:00:20 51°20.603 3°0.816 77.6 11.1 75 10.5
2009-07-27 08:00:25 51°20.607 3°0.839 77.4 11.2 74 10.4
2009-07-27 08:00:30 51°20.612 3°0.863 77.2 11.1 75 10.4
2009-07-27 08:00:35 51°20.616 3°0.887 77.1 11.1 74 10.4
2009-07-27 08:00:40 51°20.62 3°0.91 77 11.2 75 10.4
2009-07-27 08:00:45 51°20.624 3°0.934 76.7 11.1 74 10.4
2009-07-27 08:00:50 51°20.628 3°0.958 77.1 11.1 76 10.4
2009-07-27 08:00:55 51°20.632 3°0.981 77.6 11.1 74 10.3
2009-07-27 08:01:00 51°20.636 3°1.005 77.2 11.1 75 10.4
2009-07-27 08:01:05 51°20.64 3°1.029 77.2 11.1 74 10.3
2009-07-27 08:01:10 51°20.644 3°1.053 77.2 11.1 75 10.4
2009-07-27 08:01:15 51°20.649 3°1.076 76.6 11.1 73 10.4
2009-07-27 08:01:19 51°20.652 3°1.095 76.8 11.1 75 10.3
2009-07-27 08:01:25 51°20.657 3°1.123 77 11.1 73 10.3
2009-07-27 08:01:30 51°20.661 3°1.147 76.7 11.1 74 10.3
2009-07-27 08:01:35 51°20.666 3°1.171 76.9 11.1 74 10.3
2009-07-27 08:01:40 51°20.67 3°1.194 76.9 11.1 74 10.3
2009-07-27 08:01:45 51°20.674 3°1.218 76.9 11.1 74 10.3
2009-07-27 08:01:50 51°20.678 3°1.242 76.8 11.1 74 10.3
2009-07-27 08:01:55 51°20.682 3°1.265 77 11.1 74 10.2
2009-07-27 08:01:59 51°20.686 3°1.284 76.9 11.1 74 10.3
2009-07-27 08:02:05 51°20.691 3°1.313 76.9 11.1 74 10.2
2009-07-27 08:02:10 51°20.695 3°1.336 76.6 11.1 73 10.2
2009-07-27 08:02:15 51°20.7 3°1.36 76.2 11.1 74 10.2
2009-07-27 08:02:19 51°20.703 3°1.378 76.3 11.1 74 10.3
2009-07-27 08:02:25 51°20.708 3°1.407 76.4 11.1 74 10.3
2009-07-27 08:02:30 51°20.712 3°1.43 76.4 11.1 73 10.3
2009-07-27 08:02:35 51°20.717 3°1.454 76.5 11 74 10.3
2009-07-27 08:02:40 51°20.721 3°1.477 76.7 11 74 10.4
2009-07-27 08:02:45 51°20.726 3°1.5 76.3 11 72 10.2
2009-07-27 08:02:50 51°20.73 3°1.524 76.4 11 74 10.2
2009-07-27 08:02:55 51°20.735 3°1.547 76.6 11 72 10.2
2009-07-27 08:03:00 51°20.739 3°1.57 76.3 11 73 10.3
2009-07-27 08:03:05 51°20.744 3°1.593 76.4 11 72 10.3
2009-07-27 08:03:10 51°20.748 3°1.616 76.3 11 72 10.2
2009-07-27 08:03:15 51°20.753 3°1.639 76.3 11 72 10.2
2009-07-27 08:03:20 51°20.758 3°1.662 76.3 11 72 10.3
2009-07-27 08:03:25 51°20.762 3°1.686 76.1 11 72 10.3
2009-07-27 08:03:30 51°20.768 3°1.708 75.7 11 70 10.2
2009-07-27 08:03:35 51°20.772 3°1.731 75.4 10.9 71 10.2
2009-07-27 08:03:39 51°20.776 3°1.75 76 10.9 72 10.3
2009-07-27 08:03:45 51°20.782 3°1.777 76.3 10.9 71 10.3
2009-07-27 08:03:50 51°20.787 3°1.8 75.5 10.9 70 10.2
2009-07-27 08:03:55 51°20.792 3°1.822 75.1 10.8 71 10.2
2009-07-27 08:04:00 51°20.797 3°1.845 74.7 10.8 69 10.2
2009-07-27 08:04:05 51°20.802 3°1.867 74.2 10.8 70 10.3
2009-07-27 08:04:10 51°20.808 3°1.889 74.4 10.8 69 10.2
2009-07-27 08:04:15 51°20.813 3°1.912 74 10.8 69 10.2
2009-07-27 08:04:20 51°20.818 3°1.934 73.5 10.7 69 10.3
2009-07-27 08:04:25 51°20.824 3°1.956 74 10.7 69 10.2
2009-07-27 08:04:30 51°20.829 3°1.978 74.1 10.7 69 10.3
2009-07-27 08:04:35 51°20.834 3°2.001 74.2 10.7 70 10.3
2009-07-27 08:04:39 51°20.838 3°2.018 74.1 10.7 70 10.3
2009-07-27 08:04:45 51°20.844 3°2.045 74.7 10.7 70 10.3
2009-07-27 08:04:50 51°20.849 3°2.067 74.8 10.7 69 10.2
2009-07-27 08:04:55 51°20.854 3°2.09 74.7 10.7 71 10.2
2009-07-27 08:04:59 51°20.858 3°2.108 74.8 10.7 70 10.2
2009-07-27 08:05:05 51°20.864 3°2.134 74.8 10.7 71 10.2
2009-07-27 08:05:10 51°20.869 3°2.157 74.8 10.7 70 10.3
2009-07-27 08:05:15 51°20.874 3°2.179 74.9 10.7 71 10.2
2009-07-27 08:05:20 51°20.879 3°2.201 75.3 10.6 71 10.2
2009-07-27 08:05:25 51°20.883 3°2.224 75.8 10.7 72 10.3
2009-07-27 08:05:30 51°20.888 3°2.246 75.7 10.7 72 10.2
2009-07-27 08:05:34 51°20.89 3°2.265 78.1 10.6 78 10.2
2009-07-27 08:05:39 51°20.894 3°2.287 79.2 10.6 74 10.3
2009-07-27 08:05:45 51°20.898 3°2.315 80.9 10.5 80 10.3
2009-07-27 08:05:50 51°20.901 3°2.338 81.5 10.6 76 10.2
2009-07-27 08:05:55 51°20.903 3°2.361 82.1 10.5 81 10.3
2009-07-27 08:05:59 51°20.905 3°2.379 83.4 10.5 80 10.2
2009-07-27 08:06:05 51°20.908 3°2.407 83.8 10.5 80 10.1
2009-07-27 08:06:10 51°20.91 3°2.43 84.3 10.5 83 10.2
2009-07-27 08:06:15 51°20.913 3°2.453 84.9 10.5 80 10.1
2009-07-27 08:06:19 51°20.914 3°2.471 84.9 10.5 83 10.2
2009-07-27 08:06:25 51°20.916 3°2.499 85.1 10.5 81 10.1
2009-07-27 08:06:30 51°20.918 3°2.522 85.8 10.5 83 10.2
2009-07-27 08:06:35 51°20.92 3°2.545 85.6 10.5 81 10.2
2009-07-27 08:06:40 51°20.922 3°2.568 84.8 10.5 81 10.1
2009-07-27 08:06:45 51°20.924 3°2.591 84.9 10.5 82 10.2
2009-07-27 08:06:50 51°20.928 3°2.614 83.8 10.5 78 10
2009-07-27 08:06:55 51°20.93 3°2.637 83.2 10.5 81 10.2
2009-07-27 08:07:00 51°20.932 3°2.66 83.3 10.5 80 10.1
2009-07-27 08:07:05 51°20.935 3°2.683 83.8 10.5 81 10.1
2009-07-27 08:07:10 51°20.937 3°2.706 83.7 10.6 80 10.1
2009-07-27 08:07:14 51°20.939 3°2.724 83.6 10.5 80 10
2009-07-27 08:07:20 51°20.942 3°2.752 83.6 10.5 81 10.1
2009-07-27 08:07:25 51°20.945 3°2.775 83.3 10.6 79 10
2009-07-27 08:07:30 51°20.947 3°2.798 82.7 10.5 80 10
2009-07-27 08:07:35 51°20.95 3°2.821 82.7 10.6 80 10.1
2009-07-27 08:07:40 51°20.952 3°2.844 82.9 10.5 79 10
2009-07-27 08:07:45 51°20.955 3°2.866 82.8 10.5 80 10.1
2009-07-27 08:07:50 51°20.958 3°2.889 83.2 10.5 80 10
2009-07-27 08:07:55 51°20.96 3°2.912 83 10.6 79 9.9
2009-07-27 08:07:59 51°20.962 3°2.931 83 10.5 80 10
2009-07-27 08:08:05 51°20.965 3°2.958 82.6 10.4 79 10
2009-07-27 08:08:10 51°20.968 3°2.981 82.1 10.5 78 10
2009-07-27 08:08:15 51°20.971 3°3.003 81.6 10.5 78 10
2009-07-27 08:08:19 51°20.974 3°3.021 81.1 10.5 77 9.9
2009-07-27 08:08:25 51°20.977 3°3.048 80.7 10.4 78 9.9
2009-07-27 08:08:30 51°20.981 3°3.071 80.6 10.5 77 9.9